Beverly Municipal Airport Beverly US
ICAO: KBVY
IATA: BVY
Category: Medium
Scheduled Services: No

Elevation: 107 ft
TransAlt. 18000 ft.

Airport Communications:
BOSTON APP/DEP:124.4
ATIS:119.2
CTAF:125.2
GND:121.6
TWR:125.2
UNICOM:122.95

KBVY Zoom In..

Runways:

(A) RW 09 length 4755 ft width 100 ft
LOC 110.50 / hdg 90

(B) RW 16 length 5001 ft width 100 ft
LOC 110.50 / hdg 157

(C) RW 27 length 4755 ft width 100 ft
LOC 110.50 / hdg 270

(D) RW 34 length 5001 ft width 100 ft
LOC 110.50 / hdg 337

Location; KBVY
Day. 25 / Time. 11.53 Zulu
* Altimeter: 30.13
* Temperature: 09° c. 48.2°f.
* Wind from: 080° Speed 03 kn.
Dewpoint: 08° c.
Visibility: 4 Statute Miles.
Clouds: Overcast 3900 ft.
Conditions: Light Rain.Conditions: Mist.

KBVY 251153Z 08003KT 4SM -RA BR OVC039 09/08 A3013 RMK AO2 SLP199 P0003 60003 70003 T00940083 10111 20083 58004


Wind From 080°
Speed 03 kn.

  YouTube Music Video
 
jpsmedia.com for Web Design  worldairports.se 2018   terms of use